Time;durP1;ratioP1;P1;durP2;ratioP2;P2;SDS_P1;SDS_P2;PMS_P1;PMS_P2;Temp;Humidity;BMP_temperature;BMP_pressure;BME280_temperature;BME280_humidity;BME280_pressure;Samples;Min_cycle;Max_cycle;Signal;HPM_P1;HPM_P2
2021/04/18 00:00:22;;;;;;;7.87;3.50;;;7.70;99.90;;;;;;5037560;28;20208;-90
2021/04/18 00:02:49;;;;;;;9.47;3.23;;;7.70;99.90;;;;;;5054850;28;20178;-90
2021/04/18 00:05:19;;;;;;;8.23;3.80;;;7.70;99.90;;;;;;5037834;28;20178;-90
2021/04/18 00:07:45;;;;;;;9.10;2.87;;;7.70;99.90;;;;;;5037720;28;20227;-91
2021/04/18 00:10:11;;;;;;;7.87;2.80;;;7.70;99.90;;;;;;5037506;28;20684;-93
2021/04/18 00:12:37;;;;;;;7.57;2.97;;;7.70;99.90;;;;;;5037409;28;20240;-91
2021/04/18 00:15:09;;;;;;;9.63;3.17;;;7.70;99.90;;;;;;5037166;28;20297;-90
2021/04/18 00:17:35;;;;;;;13.07;3.10;;;7.70;99.90;;;;;;5054774;28;20507;-91
2021/04/18 00:20:01;;;;;;;5.83;3.17;;;7.70;99.90;;;;;;5037440;28;20643;-91
2021/04/18 00:22:27;;;;;;;6.40;3.03;;;7.70;99.90;;;;;;5037150;28;20182;-91
2021/04/18 00:24:52;;;;;;;6.87;2.90;;;7.60;99.90;;;;;;5037719;28;20177;-90
2021/04/18 00:27:18;;;;;;;8.10;3.40;;;7.60;99.90;;;;;;5036979;28;20233;-90
2021/04/18 00:29:44;;;;;;;8.33;3.13;;;7.60;99.90;;;;;;5055194;28;20182;-91
2021/04/18 00:32:09;;;;;;;6.50;2.90;;;7.60;99.90;;;;;;5036873;28;20601;-91
2021/04/18 00:34:36;;;;;;;9.57;3.70;;;7.60;99.90;;;;;;5055033;28;20212;-91
2021/04/18 00:37:01;;;;;;;8.37;3.40;;;7.60;99.90;;;;;;5037173;28;20178;-90
2021/04/18 00:39:27;;;;;;;9.10;3.40;;;7.60;99.90;;;;;;5037163;28;20211;-91
2021/04/18 00:41:53;;;;;;;11.77;3.63;;;7.60;99.90;;;;;;5438329;23;20237;-92
2021/04/18 00:44:19;;;;;;;7.63;3.13;;;7.60;99.90;;;;;;5041470;28;20629;-93
2021/04/18 00:46:45;;;;;;;8.27;3.00;;;7.60;99.90;;;;;;5040389;28;20629;-93
2021/04/18 00:49:10;;;;;;;6.20;3.20;;;7.70;99.90;;;;;;5039080;28;20170;-93
2021/04/18 00:51:36;;;;;;;8.87;3.20;;;7.70;99.90;;;;;;5040604;28;20208;-92
2021/04/18 00:54:03;;;;;;;10.07;3.60;;;7.60;99.90;;;;;;5039796;28;20190;-94
2021/04/18 00:56:29;;;;;;;5.63;3.13;;;7.60;99.90;;;;;;5040030;28;20202;-92
2021/04/18 00:58:56;;;;;;;6.07;3.43;;;7.60;99.90;;;;;;5038887;28;20177;-91
2021/04/18 01:01:22;;;;;;;8.03;3.70;;;7.60;99.90;;;;;;5038578;28;20284;-91
2021/04/18 01:03:48;;;;;;;8.07;3.30;;;7.60;99.90;;;;;;5058127;28;20188;-94
2021/04/18 01:06:13;;;;;;;8.83;3.37;;;7.60;99.90;;;;;;5042919;28;20217;-93
2021/04/18 01:08:39;;;;;;;9.80;3.83;;;7.60;99.90;;;;;;5042745;28;20223;-92
2021/04/18 01:11:05;;;;;;;6.30;2.97;;;7.60;99.90;;;;;;5042661;28;20644;-92
2021/04/18 01:13:31;;;;;;;6.43;3.13;;;7.70;99.90;;;;;;5043303;28;20193;-89
2021/04/18 01:15:57;;;;;;;10.77;3.67;;;7.70;99.90;;;;;;5044461;28;20170;-93
2021/04/18 01:18:22;;;;;;;12.20;3.50;;;7.70;99.90;;;;;;5044368;28;20653;-91
2021/04/18 01:21:00;;;;;;;13.23;3.40;;;7.70;99.90;;;;;;5043430;28;20166;-92
2021/04/18 01:23:29;;;;;;;8.27;3.30;;;7.70;99.90;;;;;;5043061;28;20204;-91
2021/04/18 01:25:54;;;;;;;7.33;3.27;;;7.60;99.90;;;;;;5043088;28;20232;-94
2021/04/18 01:28:20;;;;;;;7.50;3.43;;;7.60;99.90;;;;;;5043668;28;20178;-92
2021/04/18 01:30:47;;;;;;;13.90;4.07;;;7.60;99.90;;;;;;5043067;28;20177;-92
2021/04/18 01:33:13;;;;;;;9.13;3.40;;;7.60;99.90;;;;;;5044097;28;20219;-91
2021/04/18 01:35:41;;;;;;;10.23;4.00;;;7.60;99.90;;;;;;5043314;28;20253;-93
2021/04/18 01:38:10;;;;;;;8.27;3.57;;;7.60;99.90;;;;;;5042148;28;20285;-93
2021/04/18 01:40:36;;;;;;;11.03;3.97;;;7.60;99.90;;;;;;5042816;28;20200;-94
2021/04/18 01:43:03;;;;;;;9.90;3.53;;;7.70;99.90;;;;;;5042620;28;20233;-91
2021/04/18 01:45:29;;;;;;;8.53;3.43;;;7.60;99.90;;;;;;5043957;28;20174;-93
2021/04/18 01:47:56;;;;;;;13.57;4.27;;;7.60;99.90;;;;;;5038809;28;20209;-92
2021/04/18 01:50:21;;;;;;;5.77;3.30;;;7.60;99.90;;;;;;5039354;28;20159;-92
2021/04/18 01:52:48;;;;;;;6.23;3.40;;;7.60;99.90;;;;;;5022094;28;20201;-91
2021/04/18 01:55:16;;;;;;;13.10;4.00;;;7.50;99.90;;;;;;5022976;28;20293;-92
2021/04/18 01:57:42;;;;;;;12.37;4.00;;;7.40;99.90;;;;;;5024054;28;20170;-92
2021/04/18 02:00:11;;;;;;;8.00;3.83;;;7.40;99.90;;;;;;5024724;28;20170;-93
2021/04/18 02:02:37;;;;;;;7.80;2.90;;;7.40;99.90;;;;;;5041606;28;20194;-90
2021/04/18 02:05:03;;;;;;;6.97;3.47;;;7.40;99.90;;;;;;5024411;28;20167;-93
2021/04/18 02:07:30;;;;;;;13.73;4.30;;;7.40;99.90;;;;;;5022921;28;20171;-91
2021/04/18 02:09:56;;;;;;;11.13;3.77;;;7.30;99.90;;;;;;5023911;28;20167;-92
2021/04/18 02:12:22;;;;;;;7.53;3.50;;;7.40;99.90;;;;;;5023668;28;20697;-93
2021/04/18 02:14:48;;;;;;;7.77;4.00;;;7.40;99.90;;;;;;5023883;28;20198;-91
2021/04/18 02:17:14;;;;;;;9.13;3.90;;;7.30;99.90;;;;;;5023803;28;20174;-92
2021/04/18 02:19:40;;;;;;;7.77;3.87;;;7.30;99.90;;;;;;5023154;28;20241;-91
2021/04/18 02:22:06;;;;;;;8.17;3.93;;;7.30;99.90;;;;;;5023047;28;20194;-91
2021/04/18 02:24:31;;;;;;;9.47;3.90;;;7.30;99.90;;;;;;5039414;28;20178;-91
2021/04/18 02:26:57;;;;;;;7.87;4.27;;;7.30;99.90;;;;;;5022763;28;20175;-94
2021/04/18 02:29:23;;;;;;;8.57;3.73;;;7.30;99.90;;;;;;5023059;28;20186;-89
2021/04/18 02:31:49;;;;;;;7.83;3.67;;;7.30;99.90;;;;;;5022934;28;20194;-93
2021/04/18 02:34:15;;;;;;;11.07;3.93;;;7.30;99.90;;;;;;5023389;28;20207;-94
2021/04/18 02:36:41;;;;;;;6.97;3.53;;;7.30;99.90;;;;;;5022788;28;20190;-93
2021/04/18 02:39:07;;;;;;;7.43;4.10;;;7.30;99.90;;;;;;5022909;28;20175;-92
2021/04/18 02:41:33;;;;;;;9.00;4.17;;;7.30;99.90;;;;;;5023243;28;20309;-90
2021/04/18 02:43:59;;;;;;;10.67;3.70;;;7.30;99.90;;;;;;5039625;28;20193;-91
2021/04/18 02:46:24;;;;;;;10.63;4.13;;;7.30;99.90;;;;;;5043154;28;20189;-93
2021/04/18 02:48:52;;;;;;;7.97;4.07;;;7.30;99.90;;;;;;5043415;28;20162;-93
2021/04/18 02:51:18;;;;;;;10.97;4.47;;;7.30;99.90;;;;;;5042440;28;20198;-94
2021/04/18 02:53:44;;;;;;;7.60;4.03;;;7.20;99.90;;;;;;5042685;28;20193;-93
2021/04/18 02:56:10;;;;;;;10.10;4.73;;;7.20;99.90;;;;;;5042402;28;20544;-90
2021/04/18 02:58:36;;;;;;;9.30;4.60;;;7.10;99.90;;;;;;5042952;28;20182;-93
2021/04/18 03:01:03;;;;;;;7.73;3.80;;;7.10;99.90;;;;;;5042163;28;20509;-91
2021/04/18 03:03:29;;;;;;;12.00;4.67;;;7.10;99.90;;;;;;5042553;28;20170;-93
2021/04/18 03:05:56;;;;;;;11.83;4.57;;;7.00;99.90;;;;;;5041922;28;20173;-91
2021/04/18 03:08:21;;;;;;;8.33;4.73;;;7.00;99.90;;;;;;5041540;28;20196;-94
2021/04/18 03:10:48;;;;;;;9.83;4.90;;;7.00;99.90;;;;;;5040713;28;20181;-93
2021/04/18 03:13:14;;;;;;;13.57;4.90;;;6.90;99.90;;;;;;5040854;28;20678;-91
2021/04/18 03:15:41;;;;;;;10.10;4.67;;;6.90;99.90;;;;;;5035310;28;20178;-93
2021/04/18 03:18:07;;;;;;;9.10;5.27;;;6.90;99.90;;;;;;5021450;28;20171;-91
2021/04/18 03:20:33;;;;;;;10.07;5.33;;;6.90;99.90;;;;;;5022242;28;20230;-93
2021/04/18 03:22:59;;;;;;;8.23;5.60;;;6.90;99.90;;;;;;5021797;28;20234;-93
2021/04/18 03:25:25;;;;;;;12.67;5.90;;;6.90;99.90;;;;;;5021458;28;20170;-92
2021/04/18 03:27:51;;;;;;;8.37;5.13;;;7.00;99.90;;;;;;5021458;28;20162;-94
2021/04/18 03:30:17;;;;;;;9.90;6.20;;;7.00;99.90;;;;;;5021148;28;20266;-92
2021/04/18 03:32:43;;;;;;;11.60;6.10;;;7.00;99.90;;;;;;5021802;28;20554;-92
2021/04/18 03:35:09;;;;;;;10.27;5.20;;;7.00;99.90;;;;;;5021808;28;20202;-93
2021/04/18 03:37:35;;;;;;;15.40;5.87;;;7.00;99.90;;;;;;5021329;28;20174;-90
2021/04/18 03:40:01;;;;;;;13.30;5.23;;;7.00;99.90;;;;;;5022350;28;20175;-92
2021/04/18 03:42:27;;;;;;;13.30;5.60;;;7.10;99.90;;;;;;5021624;28;20254;-92
2021/04/18 03:44:53;;;;;;;12.20;5.47;;;7.00;99.90;;;;;;5022579;28;20178;-93
2021/04/18 03:47:19;;;;;;;10.67;6.00;;;7.10;99.90;;;;;;5038449;28;20274;-92
2021/04/18 03:49:45;;;;;;;9.00;5.63;;;7.10;99.90;;;;;;5021534;28;20193;-90
2021/04/18 03:52:11;;;;;;;9.77;5.97;;;7.10;99.90;;;;;;5021467;28;20198;-92
2021/04/18 03:54:37;;;;;;;13.43;7.20;;;7.10;99.90;;;;;;5021933;28;20203;-94
2021/04/18 03:57:03;;;;;;;12.23;6.43;;;7.10;99.90;;;;;;5022019;28;20199;-92
2021/04/18 03:59:29;;;;;;;12.23;6.60;;;7.10;99.90;;;;;;5021408;28;20171;-92
2021/04/18 04:01:55;;;;;;;13.13;6.80;;;7.10;99.90;;;;;;5020859;28;20198;-92
2021/04/18 04:04:21;;;;;;;9.50;5.83;;;7.00;99.90;;;;;;5021648;28;20178;-91
2021/04/18 04:06:47;;;;;;;9.33;6.47;;;7.00;99.90;;;;;;5021321;28;20175;-93
2021/04/18 04:09:16;;;;;;;9.53;5.50;;;7.10;99.90;;;;;;5021289;28;20194;-93
2021/04/18 04:11:44;;;;;;;14.20;6.07;;;7.10;99.90;;;;;;5021976;28;20234;-90
2021/04/18 04:14:10;;;;;;;11.03;5.60;;;7.10;99.90;;;;;;5021587;28;20206;-91
2021/04/18 04:16:36;;;;;;;9.97;5.83;;;7.10;99.90;;;;;;5021000;28;20228;-92
2021/04/18 04:19:01;;;;;;;11.00;5.87;;;7.20;99.90;;;;;;5021542;28;20615;-91
2021/04/18 04:21:27;;;;;;;12.37;6.23;;;7.20;99.90;;;;;;5021668;28;20678;-91
2021/04/18 04:23:53;;;;;;;13.77;7.50;;;7.20;99.90;;;;;;5021216;28;20178;-94
2021/04/18 04:26:20;;;;;;;12.23;7.93;;;7.20;99.90;;;;;;5022317;28;20186;-91
2021/04/18 04:28:46;;;;;;;13.00;8.60;;;7.20;99.90;;;;;;5022047;28;20194;-93
2021/04/18 04:31:13;;;;;;;16.03;8.47;;;7.20;99.90;;;;;;5022549;28;20202;-92
2021/04/18 04:33:39;;;;;;;14.50;8.27;;;7.20;99.90;;;;;;5022212;28;20650;-93
2021/04/18 04:36:06;;;;;;;19.57;8.77;;;7.20;99.90;;;;;;5022378;28;20163;-93
2021/04/18 04:38:33;;;;;;;14.77;8.97;;;7.30;99.90;;;;;;5022703;28;20167;-91
2021/04/18 04:40:59;;;;;;;15.37;8.67;;;7.30;99.90;;;;;;5027852;28;20167;-94
2021/04/18 04:43:25;;;;;;;15.13;8.77;;;7.30;99.90;;;;;;5045551;28;20192;-92
2021/04/18 04:45:52;;;;;;;14.93;8.67;;;7.30;99.90;;;;;;5045427;28;20202;-92
2021/04/18 04:48:18;;;;;;;16.03;8.60;;;7.40;99.90;;;;;;5045347;28;20319;-92
2021/04/18 04:50:45;;;;;;;16.47;8.57;;;7.30;99.90;;;;;;5044760;28;20193;-92
2021/04/18 04:53:13;;;;;;;14.23;9.40;;;7.30;99.90;;;;;;5044107;28;20204;-92
2021/04/18 04:55:41;;;;;;;13.60;9.30;;;7.30;99.90;;;;;;5061783;28;20162;-93
2021/04/18 04:58:07;;;;;;;14.17;9.67;;;7.30;99.90;;;;;;5042307;28;20192;-93
2021/04/18 05:00:33;;;;;;;16.03;9.60;;;7.40;99.90;;;;;;5043276;28;20162;-91
2021/04/18 05:02:58;;;;;;;14.67;8.93;;;7.30;99.90;;;;;;5044650;28;20194;-93
2021/04/18 05:05:24;;;;;;;16.97;9.10;;;7.20;99.90;;;;;;5044666;28;20223;-91
2021/04/18 05:07:50;;;;;;;17.30;9.87;;;7.20;99.90;;;;;;5043521;28;20163;-94
2021/04/18 05:10:16;;;;;;;15.47;9.10;;;7.20;99.90;;;;;;5043918;28;20170;-93
2021/04/18 05:12:42;;;;;;;17.87;9.57;;;7.30;99.90;;;;;;5043439;28;20539;-94
2021/04/18 05:15:08;;;;;;;16.70;9.17;;;7.30;99.90;;;;;;5044761;28;20204;-92
2021/04/18 05:17:34;;;;;;;16.43;9.30;;;7.40;99.90;;;;;;5041594;28;20206;-90
2021/04/18 05:20:00;;;;;;;20.07;9.97;;;7.40;99.90;;;;;;5040939;28;20245;-94
2021/04/18 05:22:27;;;;;;;17.53;9.67;;;7.30;99.90;;;;;;5040738;28;20198;-93
2021/04/18 05:24:52;;;;;;;17.60;9.90;;;7.40;99.90;;;;;;5040320;28;20170;-93
2021/04/18 05:27:24;;;;;;;20.10;11.73;;;7.40;99.90;;;;;;5029536;28;20277;-94
2021/04/18 05:29:49;;;;;;;21.53;12.27;;;7.40;99.90;;;;;;5025155;28;20171;-94
2021/04/18 05:32:15;;;;;;;20.13;9.67;;;7.40;99.90;;;;;;5005914;28;20263;-92
2021/04/18 05:34:41;;;;;;;15.90;9.63;;;7.40;99.90;;;;;;5022870;28;20595;-95
2021/04/18 05:37:07;;;;;;;18.60;12.30;;;7.40;99.90;;;;;;5023378;28;20182;-93
2021/04/18 05:39:33;;;;;;;18.37;11.63;;;7.50;99.90;;;;;;5023606;28;20159;-93
2021/04/18 05:41:59;;;;;;;17.43;11.57;;;7.50;99.90;;;;;;5020985;28;20228;-92
2021/04/18 05:44:25;;;;;;;17.50;11.90;;;7.50;99.90;;;;;;5031403;28;20166;-94
2021/04/18 05:46:50;;;;;;;17.67;11.50;;;7.40;99.90;;;;;;5038359;28;20618;-93
2021/04/18 05:49:16;;;;;;;21.87;12.97;;;7.50;99.90;;;;;;5038195;28;20198;-92
2021/04/18 05:51:42;;;;;;;24.10;12.00;;;7.50;99.90;;;;;;5039275;28;20248;-94
2021/04/18 05:54:08;;;;;;;17.63;11.30;;;7.40;99.90;;;;;;5039069;28;20229;-94
2021/04/18 05:56:34;;;;;;;22.47;11.47;;;7.50;99.90;;;;;;5039801;28;20189;-91
2021/04/18 05:59:01;;;;;;;19.47;11.23;;;7.50;99.90;;;;;;5029661;28;20174;-93
2021/04/18 06:01:29;;;;;;;21.70;11.33;;;7.50;99.90;;;;;;5038912;28;20202;-94
2021/04/18 06:04:01;;;;;;;21.90;11.60;;;7.60;99.90;;;;;;5039843;28;20208;-95
2021/04/18 06:06:28;;;;;;;16.53;11.70;;;7.60;99.90;;;;;;5040203;28;20185;-94
2021/04/18 06:08:56;;;;;;;18.23;11.83;;;7.60;99.90;;;;;;5038865;28;20186;-95
2021/04/18 06:11:23;;;;;;;25.33;11.80;;;7.60;99.90;;;;;;5041881;28;20216;-95
2021/04/18 06:13:49;;;;;;;16.73;11.03;;;7.60;99.90;;;;;;5027862;28;20202;-92
2021/04/18 06:16:16;;;;;;;19.03;12.03;;;7.70;99.90;;;;;;5025245;28;20175;-95
2021/04/18 06:18:42;;;;;;;17.53;11.93;;;7.70;99.90;;;;;;5035809;28;20170;-92
2021/04/18 06:24:53;;;;;;;17.67;12.80;;;7.60;99.90;;;;;;5056680;28;20555;-94
2021/04/18 06:27:49;;;;;;;21.27;13.07;;;7.60;99.90;;;;;;5039284;28;20201;-94
2021/04/18 06:31:02;;;;;;;21.67;12.13;;;7.70;99.90;;;;;;5039028;28;20247;-93
2021/04/18 06:33:33;;;;;;;17.90;11.17;;;7.70;99.90;;;;;;5040573;28;20579;-93
2021/04/18 06:36:36;;;;;;;18.53;12.70;;;7.70;99.90;;;;;;5041164;28;20177;-94
2021/04/18 06:39:04;;;;;;;19.80;13.37;;;7.70;99.90;;;;;;5040899;28;20180;-94
2021/04/18 06:41:39;;;;;;;19.77;12.27;;;7.70;99.90;;;;;;5040139;28;20689;-95
2021/04/18 06:44:06;;;;;;;20.90;12.17;;;7.70;99.90;;;;;;5040353;28;20185;-93
2021/04/18 06:46:40;;;;;;;15.80;10.97;;;7.70;99.90;;;;;;5039837;28;20178;-92
2021/04/18 06:49:05;;;;;;;18.50;12.10;;;7.80;99.90;;;;;;5039159;28;20235;-95
2021/04/18 06:51:31;;;;;;;19.87;12.53;;;7.80;99.90;;;;;;5039293;28;20256;-91
2021/04/18 06:53:57;;;;;;;19.87;14.63;;;7.80;99.90;;;;;;5032777;28;20195;-92
2021/04/18 06:56:23;;;;;;;25.33;15.83;;;7.80;99.90;;;;;;5029550;28;20182;-94
2021/04/18 06:58:49;;;;;;;21.27;13.97;;;7.80;99.90;;;;;;5033235;28;20183;-92
2021/04/18 07:01:25;;;;;;;17.80;11.90;;;7.90;99.90;;;;;;5025551;28;20200;-93
2021/04/18 07:04:15;;;;;;;16.50;11.33;;;7.90;99.90;;;;;;5038396;28;20177;-93
2021/04/18 07:06:57;;;;;;;20.70;14.73;;;7.90;99.90;;;;;;5027375;28;20170;-92
2021/04/18 07:09:24;;;;;;;25.83;17.00;;;7.90;99.90;;;;;;5026922;28;20185;-93
2021/04/18 07:12:00;;;;;;;22.57;12.57;;;7.90;99.90;;;;;;5030463;28;20224;-93
2021/04/18 07:14:29;;;;;;;30.23;21.23;;;8.00;99.90;;;;;;5025188;28;20221;-94
2021/04/18 07:17:10;;;;;;;21.03;13.97;;;7.90;99.90;;;;;;5037245;28;20176;-94
2021/04/18 07:19:38;;;;;;;24.97;13.43;;;7.90;99.90;;;;;;5037388;28;20673;-92
2021/04/18 07:22:06;;;;;;;22.67;14.67;;;8.00;99.90;;;;;;5034028;28;20195;-95
2021/04/18 07:24:33;;;;;;;18.53;12.00;;;8.00;99.90;;;;;;5017730;28;20171;-95
2021/04/18 07:27:05;;;;;;;21.87;12.30;;;8.00;99.90;;;;;;5024401;28;20190;-93
2021/04/18 07:29:56;;;;;;;20.37;12.50;;;8.10;99.90;;;;;;5037246;28;20193;-93
2021/04/18 07:32:31;;;;;;;17.77;12.67;;;8.20;99.90;;;;;;5037737;28;20202;-93
2021/04/18 07:35:06;;;;;;;20.97;13.30;;;8.20;99.90;;;;;;5037560;28;20216;-94
2021/04/18 07:37:34;;;;;;;18.37;12.67;;;8.20;99.90;;;;;;5037449;28;20189;-95
2021/04/18 07:40:04;;;;;;;24.57;15.80;;;8.10;99.90;;;;;;5055960;28;20182;-95
2021/04/18 07:42:40;;;;;;;20.53;13.70;;;8.10;99.90;;;;;;5055474;28;20232;-91
2021/04/18 07:45:15;;;;;;;20.70;14.33;;;8.10;99.90;;;;;;5038912;28;20170;-94
2021/04/18 07:47:43;;;;;;;21.47;13.73;;;8.10;99.90;;;;;;5037591;28;20192;-94
2021/04/18 07:50:20;;;;;;;26.93;16.23;;;8.20;99.90;;;;;;5038295;28;20265;-93
2021/04/18 07:52:47;;;;;;;23.27;13.13;;;8.20;99.90;;;;;;5037402;28;20247;-91
2021/04/18 07:55:16;;;;;;;17.97;11.93;;;8.20;99.90;;;;;;5036603;28;20559;-94
2021/04/18 07:57:42;;;;;;;19.10;11.90;;;8.20;99.90;;;;;;5038471;28;20171;-93
2021/04/18 08:00:10;;;;;;;17.47;12.40;;;8.30;99.90;;;;;;5039646;28;20178;-92
2021/04/18 08:02:36;;;;;;;17.80;12.03;;;8.30;99.90;;;;;;5033218;28;20348;-93
2021/04/18 08:05:03;;;;;;;17.53;12.57;;;8.40;99.90;;;;;;5036271;28;20190;-91
2021/04/18 08:07:29;;;;;;;19.23;13.27;;;8.40;99.90;;;;;;5037994;28;20193;-91
2021/04/18 08:10:28;;;;;;;19.60;13.83;;;8.50;99.90;;;;;;5039443;28;20304;-92
2021/04/18 08:13:13;;;;;;;24.63;13.27;;;8.50;99.90;;;;;;5033131;28;20209;-93
2021/04/18 08:15:53;;;;;;;17.57;12.07;;;8.50;99.90;;;;;;5031936;28;20191;-94
2021/04/18 08:18:40;;;;;;;18.37;13.20;;;8.60;99.90;;;;;;5030744;28;20533;-94
2021/04/18 08:21:37;;;;;;;17.63;13.13;;;8.70;99.90;;;;;;5040508;28;20653;-94
2021/04/18 08:28:19;;;;;;;23.93;13.93;;;8.70;99.90;;;;;;5053399;28;20183;-94
2021/04/18 08:31:09;;;;;;;21.40;12.83;;;8.80;99.90;;;;;;5032758;28;20276;-92
2021/04/18 08:33:38;;;;;;;19.73;13.90;;;8.80;99.90;;;;;;5031318;28;20238;-95
2021/04/18 08:36:25;;;;;;;20.77;13.80;;;8.70;99.90;;;;;;5038937;28;20170;-92
2021/04/18 08:39:00;;;;;;;23.00;14.60;;;8.80;99.90;;;;;;5038597;28;20205;-96
2021/04/18 08:41:50;;;;;;;20.93;14.13;;;8.80;99.90;;;;;;5040284;28;20225;-94
2021/04/18 08:44:39;;;;;;;20.80;13.30;;;8.90;99.90;;;;;;5037965;28;20186;-92
2021/04/18 08:47:26;;;;;;;28.17;13.33;;;8.90;99.90;;;;;;5037989;28;20174;-93
2021/04/18 08:50:20;;;;;;;18.27;12.37;;;8.90;99.90;;;;;;5037056;28;20654;-95
2021/04/18 08:55:56;;;;;;;19.07;12.27;;;9.00;99.90;;;;;;5054480;28;20201;-92
2021/04/18 08:58:34;;;;;;;34.37;12.93;;;9.20;99.90;;;;;;5039475;28;20245;-93
2021/04/18 09:01:08;;;;;;;20.07;11.93;;;9.30;99.90;;;;;;5039797;28;20200;-93
2021/04/18 09:03:55;;;;;;;15.67;11.17;;;9.30;99.90;;;;;;5040128;28;20170;-92
2021/04/18 09:06:32;;;;;;;19.93;9.87;;;9.50;99.90;;;;;;5038836;28;20659;-91
2021/04/18 09:08:58;;;;;;;15.87;10.23;;;9.50;99.90;;;;;;5035123;28;20190;-92
2021/04/18 09:11:24;;;;;;;15.03;9.23;;;9.70;99.90;;;;;;5035947;28;20230;-94
2021/04/18 09:13:55;;;;;;;17.47;9.80;;;9.80;99.90;;;;;;5036146;28;20229;-91
2021/04/18 09:16:32;;;;;;;16.00;9.33;;;9.80;99.90;;;;;;5037157;28;20166;-94
2021/04/18 09:19:39;;;;;;;17.30;9.77;;;9.90;99.90;;;;;;5029320;28;20182;-94
2021/04/18 09:25:58;;;;;;;16.40;9.50;;;10.00;99.90;;;;;;5058059;28;20195;-94
2021/04/18 09:28:35;;;;;;;15.73;8.33;;;10.00;99.90;;;;;;5040583;28;20162;-95
2021/04/18 09:31:07;;;;;;;14.13;9.77;;;10.10;99.90;;;;;;5040231;28;20168;-95
2021/04/18 09:33:33;;;;;;;18.90;9.97;;;10.40;99.90;;;;;;5042337;28;20193;-95
2021/04/18 09:35:59;;;;;;;20.73;9.40;;;10.60;99.90;;;;;;5040121;28;20289;-92
2021/04/18 09:38:35;;;;;;;14.27;9.00;;;10.70;99.90;;;;;;5042849;28;20166;-95
2021/04/18 09:41:02;;;;;;;14.87;8.67;;;10.70;99.90;;;;;;5041374;28;20284;-96
2021/04/18 09:43:28;;;;;;;15.47;9.13;;;10.70;99.90;;;;;;5020873;28;20658;-93
2021/04/18 09:46:01;;;;;;;13.33;9.27;;;10.70;99.90;;;;;;5021012;28;20240;-94
2021/04/18 09:48:27;;;;;;;16.90;9.17;;;10.80;99.90;;;;;;5031772;28;20187;-93
2021/04/18 09:51:25;;;;;;;13.50;8.93;;;11.00;99.90;;;;;;5036162;28;20182;-93
2021/04/18 09:54:04;;;;;;;19.00;9.07;;;11.10;99.90;;;;;;5018812;28;20252;-92
2021/04/18 09:56:31;;;;;;;14.83;8.23;;;11.10;99.90;;;;;;5037089;28;20245;-94
2021/04/18 09:59:16;;;;;;;12.73;8.90;;;11.10;99.90;;;;;;5036794;28;20167;-95
2021/04/18 10:01:42;;;;;;;17.10;9.00;;;11.20;99.90;;;;;;5037989;28;20539;-94
2021/04/18 10:04:24;;;;;;;13.17;8.90;;;11.30;99.90;;;;;;5037589;28;20167;-96
2021/04/18 10:06:50;;;;;;;13.57;8.37;;;11.40;99.90;;;;;;5040518;28;20166;-96
2021/04/18 10:09:16;;;;;;;12.90;8.47;;;11.50;99.90;;;;;;5036959;28;20196;-94
2021/04/18 10:11:58;;;;;;;16.07;9.13;;;11.60;99.90;;;;;;5035510;28;20203;-93
2021/04/18 10:14:24;;;;;;;12.77;8.30;;;11.70;99.90;;;;;;5035967;28;20688;-93
2021/04/18 10:16:50;;;;;;;12.63;8.57;;;11.80;99.90;;;;;;5036193;28;20171;-93
2021/04/18 10:19:21;;;;;;;14.17;8.33;;;11.80;99.90;;;;;;5035877;28;20593;-90
2021/04/18 10:22:05;;;;;;;14.00;8.57;;;11.70;99.90;;;;;;5037664;28;20218;-94
2021/04/18 10:24:47;;;;;;;14.60;8.77;;;11.80;99.90;;;;;;5037451;28;20313;-93
2021/04/18 10:27:15;;;;;;;11.73;7.80;;;11.90;99.90;;;;;;5036181;28;20540;-92
2021/04/18 10:29:43;;;;;;;12.13;8.35;;;12.00;99.90;;;;;;5035121;28;20181;-95
2021/04/18 10:32:09;;;;;;;13.68;8.30;;;12.00;99.90;;;;;;5035076;28;20199;-96
2021/04/18 10:34:36;;;;;;;18.67;8.73;;;12.20;99.90;;;;;;5035252;28;20191;-95
2021/04/18 10:37:03;;;;;;;11.53;8.67;;;12.20;99.90;;;;;;5034475;28;20164;-95
2021/04/18 10:39:29;;;;;;;16.13;8.23;;;12.20;99.90;;;;;;5036814;28;20151;-91
2021/04/18 10:41:55;;;;;;;15.45;8.52;;;12.40;99.90;;;;;;5039116;28;20662;-96
2021/04/18 10:44:21;;;;;;;12.60;8.13;;;12.50;99.90;;;;;;5056808;28;20173;-94
2021/04/18 10:46:53;;;;;;;12.88;8.07;;;12.50;99.90;;;;;;5038251;28;20166;-95
2021/04/18 10:49:20;;;;;;;17.70;8.87;;;12.40;99.90;;;;;;5018893;28;20224;-95
2021/04/18 10:51:47;;;;;;;13.32;8.43;;;12.30;99.90;;;;;;5018467;28;20281;-93
2021/04/18 10:54:15;;;;;;;13.00;8.63;;;12.40;99.90;;;;;;5017818;28;20198;-94
2021/04/18 10:56:42;;;;;;;14.60;7.90;;;12.70;99.90;;;;;;5017713;28;20217;-94
2021/04/18 10:59:08;;;;;;;13.82;7.93;;;12.70;99.90;;;;;;5018093;28;20162;-92
2021/04/18 11:01:33;;;;;;;15.20;8.67;;;12.90;99.90;;;;;;5018102;28;20702;-95
2021/04/18 11:03:59;;;;;;;13.70;7.68;;;13.00;99.90;;;;;;5017721;28;20166;-93
2021/04/18 11:06:25;;;;;;;12.68;8.52;;;13.20;99.90;;;;;;5017578;28;20696;-95
2021/04/18 11:08:51;;;;;;;10.93;7.72;;;13.50;99.90;;;;;;5017882;28;20781;-95
2021/04/18 11:11:18;;;;;;;11.32;7.47;;;13.80;99.90;;;;;;5017460;28;20194;-93
2021/04/18 11:13:45;;;;;;;11.63;7.63;;;14.10;99.90;;;;;;5017467;28;20667;-94
2021/04/18 11:16:11;;;;;;;10.88;7.05;;;14.40;99.90;;;;;;5018159;28;20183;-95
2021/04/18 11:18:37;;;;;;;11.90;7.40;;;14.50;98.80;;;;;;5033886;28;20190;-93
2021/04/18 11:21:03;;;;;;;12.77;7.82;;;14.60;99.50;;;;;;5039362;28;20169;-93
2021/04/18 11:23:29;;;;;;;17.08;7.75;;;14.50;98.50;;;;;;5039281;28;20165;-93
2021/04/18 11:25:55;;;;;;;11.82;7.38;;;14.30;98.80;;;;;;5039336;28;20166;-94
2021/04/18 11:28:21;;;;;;;11.13;7.30;;;14.40;99.50;;;;;;5039874;28;20215;-93
2021/04/18 11:30:47;;;;;;;13.45;7.80;;;14.70;99.80;;;;;;5040842;28;20220;-93
2021/04/18 11:33:13;;;;;;;12.20;7.82;;;14.60;98.30;;;;;;5040719;28;20194;-92
2021/04/18 11:35:39;;;;;;;9.98;7.53;;;14.90;98.30;;;;;;5041048;28;20754;-90
2021/04/18 11:38:06;;;;;;;10.32;7.65;;;14.90;98.50;;;;;;5041056;28;20644;-92
2021/04/18 11:40:32;;;;;;;16.65;8.13;;;14.90;98.40;;;;;;5041290;28;20169;-93
2021/04/18 11:42:58;;;;;;;10.45;7.78;;;14.70;98.40;;;;;;5041158;28;20230;-96
2021/04/18 11:45:24;;;;;;;15.70;8.23;;;14.60;98.50;;;;;;5039017;28;20173;-95
2021/04/18 11:47:53;;;;;;;12.48;7.47;;;14.30;98.90;;;;;;5041243;28;20261;-95
2021/04/18 11:50:19;;;;;;;12.43;7.50;;;14.30;99.40;;;;;;5040189;28;20174;-92
2021/04/18 11:52:44;;;;;;;12.73;6.82;;;14.20;99.20;;;;;;5041369;28;20284;-94
2021/04/18 11:55:12;;;;;;;38.85;9.10;;;14.20;99.10;;;;;;5039707;28;20661;-92
2021/04/18 11:57:39;;;;;;;13.23;7.32;;;14.20;98.60;;;;;;5040598;28;20170;-94
2021/04/18 12:00:06;;;;;;;9.88;6.22;;;14.10;98.80;;;;;;5039252;28;20173;-95
2021/04/18 12:02:33;;;;;;;10.20;7.30;;;14.30;98.70;;;;;;5039764;28;20277;-92
2021/04/18 12:04:59;;;;;;;11.45;6.60;;;14.30;98.60;;;;;;5039171;28;20220;-94
2021/04/18 12:07:24;;;;;;;14.65;7.13;;;14.40;99.00;;;;;;5041052;28;20170;-95
2021/04/18 12:09:50;;;;;;;9.93;6.82;;;14.50;97.80;;;;;;5039876;28;20170;-93
2021/04/18 12:12:16;;;;;;;11.68;7.07;;;14.40;98.10;;;;;;5041360;28;20198;-93
2021/04/18 12:14:42;;;;;;;9.77;6.65;;;14.20;98.60;;;;;;5041458;28;20288;-96
2021/04/18 12:17:10;;;;;;;10.50;6.88;;;14.10;99.30;;;;;;5026091;28;20171;-92
2021/04/18 12:19:36;;;;;;;9.98;6.60;;;13.90;99.40;;;;;;5019038;28;20193;-96
2021/04/18 12:22:02;;;;;;;18.85;7.45;;;13.80;99.70;;;;;;5020568;28;20686;-92
2021/04/18 12:24:28;;;;;;;11.77;6.28;;;13.90;99.10;;;;;;5020470;28;20190;-94
2021/04/18 12:26:53;;;;;;;9.07;6.03;;;14.00;98.90;;;;;;5023402;28;20200;-94
2021/04/18 12:29:19;;;;;;;10.80;6.50;;;14.20;99.40;;;;;;5038644;28;20173;-93
2021/04/18 12:31:45;;;;;;;9.90;6.50;;;14.40;98.70;;;;;;5037195;28;20194;-95
2021/04/18 12:34:11;;;;;;;9.40;6.68;;;14.50;98.50;;;;;;5037707;28;20208;-91
2021/04/18 12:36:37;;;;;;;10.18;6.28;;;14.50;98.60;;;;;;5038876;28;20170;-95
2021/04/18 12:39:06;;;;;;;15.02;6.85;;;14.40;99.10;;;;;;5038635;28;20170;-95
2021/04/18 12:41:32;;;;;;;17.58;6.63;;;14.50;98.30;;;;;;5038049;28;20250;-94
2021/04/18 12:43:58;;;;;;;10.65;6.65;;;14.50;98.80;;;;;;5038096;28;20181;-94
2021/04/18 12:46:24;;;;;;;12.85;7.53;;;14.50;98.70;;;;;;5037704;28;20618;-94
2021/04/18 12:48:51;;;;;;;12.90;7.00;;;14.40;98.70;;;;;;5038131;28;20209;-92
2021/04/18 12:51:17;;;;;;;11.68;7.18;;;14.40;99.50;;;;;;5037050;28;20232;-94
2021/04/18 12:53:43;;;;;;;10.43;7.45;;;14.30;99.00;;;;;;5037286;28;20284;-94
2021/04/18 12:56:09;;;;;;;12.63;7.30;;;14.20;99.40;;;;;;5038975;28;20200;-92
2021/04/18 12:58:36;;;;;;;11.23;7.25;;;14.30;99.40;;;;;;5037828;28;20224;-91
2021/04/18 13:01:03;;;;;;;10.07;7.38;;;14.20;99.70;;;;;;5041380;28;20173;-95
2021/04/18 13:03:29;;;;;;;10.88;7.30;;;14.20;99.60;;;;;;5042993;28;20181;-89
2021/04/18 13:05:55;;;;;;;13.93;7.40;;;14.10;99.90;;;;;;5042877;28;20641;-91